Search METAR Data

METAR Data for ENOV:

ENOV 212020Z VRB02KT 9999 SCT068 BKN200 13/09 Q1011 RMK WIND RWY 24 VRB01KT WIND 2090FT 00000KT